Terminal Aerodrome Forecast
Issued by NWS Bismarck, ND

Home | Current Version | Previous Version | Text Only | Print | Product List | Glossary Off
Versions: 1 2 3 4 5 6 7 8 9 10 11 12 13

901
FTUS43 KBIS 181727
TAFBIS
TAF
KBIS 181727Z 1818/1918 33008KT P6SM SKC
     FM191400 19011KT P6SM FEW250=

USA.gov is the U.S. government's official web portal to all federal, state and local government web resources and services.